Time;durP1;ratioP1;P1;durP2;ratioP2;P2;SDS_P1;SDS_P2;PMS_P1;PMS_P2;Temp;Humidity;BMP_temperature;BMP_pressure;BME280_temperature;BME280_humidity;BME280_pressure;Samples;Min_cycle;Max_cycle;Signal;HPM_P1;HPM_P2
2022/10/22 00:00:54;;;;;;;0.00;0.00;;;;;;;13.20;100.00;98478.72;6170332;23;20200;-60
2022/10/22 00:03:22;;;;;;;0.00;0.00;;;;;;;13.19;100.00;98473.63;6175263;23;20268;-60
2022/10/22 00:05:48;;;;;;;0.00;0.00;;;;;;;13.21;100.00;98482.16;6148129;23;20704;-60
2022/10/22 00:08:15;;;;;;;0.00;0.00;;;;;;;13.17;100.00;98475.59;6169181;23;20218;-60
2022/10/22 00:10:42;;;;;;;0.00;0.00;;;;;;;13.17;100.00;98473.00;6174788;23;20206;-60
2022/10/22 00:13:10;;;;;;;0.00;0.00;;;;;;;13.19;100.00;98492.81;6170557;23;20265;-61
2022/10/22 00:15:37;;;;;;;0.00;0.00;;;;;;;13.17;100.00;98473.81;6148135;23;20573;-61
2022/10/22 00:18:04;;;;;;;0.00;0.00;;;;;;;13.18;100.00;98456.28;6171249;23;20743;-60
2022/10/22 00:20:30;;;;;;;0.00;0.00;;;;;;;13.18;100.00;98420.41;6174344;23;20207;-58
2022/10/22 00:22:57;;;;;;;0.00;0.00;;;;;;;13.20;100.00;98409.75;6170791;23;20259;-60
2022/10/22 00:25:23;;;;;;;0.00;0.00;;;;;;;13.18;100.00;98430.06;6174551;23;20213;-61
2022/10/22 00:27:50;;;;;;;0.00;0.00;;;;;;;13.17;100.00;98431.88;6170801;23;20255;-61
2022/10/22 00:30:18;;;;;;;0.00;0.00;;;;;;;13.13;100.00;98425.34;6174884;23;20602;-61
2022/10/22 00:32:45;;;;;;;0.00;0.00;;;;;;;13.09;100.00;98434.56;6174270;23;20252;-60
2022/10/22 00:35:12;;;;;;;0.00;0.00;;;;;;;13.08;100.00;98428.47;6169423;23;20218;-60
2022/10/22 00:37:38;;;;;;;0.00;0.00;;;;;;;13.12;100.00;98427.16;6174355;23;20208;-61
2022/10/22 00:40:06;;;;;;;0.00;0.00;;;;;;;13.16;100.00;98435.50;6171093;23;20209;-61
2022/10/22 00:42:32;;;;;;;0.00;0.00;;;;;;;13.19;100.00;98443.00;6174475;23;20195;-61
2022/10/22 00:45:17;;;;;;;0.00;0.00;;;;;;;13.17;100.00;98452.84;6171440;23;20266;-59
2022/10/22 00:47:49;;;;;;;0.00;0.00;;;;;;;13.19;100.00;98458.75;6174920;23;20211;-59
2022/10/22 00:50:21;;;;;;;0.00;0.00;;;;;;;13.17;100.00;98458.09;6171818;23;20637;-59
2022/10/22 00:52:49;;;;;;;0.00;0.00;;;;;;;13.20;100.00;98454.31;6148424;23;20625;-59
2022/10/22 00:55:16;;;;;;;0.00;0.00;;;;;;;13.23;100.00;98459.19;6172293;23;20231;-59
2022/10/22 00:57:43;;;;;;;0.00;0.00;;;;;;;13.23;100.00;98472.31;6175179;23;20211;-59
2022/10/22 01:00:11;;;;;;;0.00;0.00;;;;;;;13.19;100.00;98471.00;6170049;23;20280;-59
2022/10/22 01:02:38;;;;;;;0.00;0.00;;;;;;;13.17;100.00;98479.06;6174840;23;20265;-59
2022/10/22 01:05:07;;;;;;;0.00;0.00;;;;;;;13.18;100.00;98472.84;6171314;23;20567;-59
2022/10/22 01:07:40;;;;;;;0.00;0.00;;;;;;;13.22;100.00;98462.81;6174832;23;20297;-59
2022/10/22 01:10:18;;;;;;;0.00;0.00;;;;;;;13.32;100.00;98457.34;6171214;23;20575;-59
2022/10/22 01:12:52;;;;;;;0.00;0.00;;;;;;;13.30;100.00;98468.00;6173769;23;20216;-58
2022/10/22 01:15:28;;;;;;;0.00;0.00;;;;;;;13.26;100.00;98480.63;6171544;23;20215;-56
2022/10/22 01:18:00;;;;;;;0.00;0.00;;;;;;;13.23;100.00;98496.72;6144859;23;20207;-58
2022/10/22 01:20:58;;;;;;;0.00;0.00;;;;;;;13.20;100.00;98496.22;6175315;23;20192;-57
2022/10/22 01:23:56;;;;;;;0.00;0.00;;;;;;;13.18;100.00;98513.94;6172464;23;20203;-59
2022/10/22 01:26:37;;;;;;;0.00;0.00;;;;;;;13.23;100.00;98514.25;6172402;23;20634;-58
2022/10/22 01:29:10;;;;;;;0.00;0.00;;;;;;;13.26;100.00;98512.09;6171467;23;20214;-56
2022/10/22 01:31:43;;;;;;;0.00;0.00;;;;;;;13.30;100.00;98538.78;6174618;23;20268;-58
2022/10/22 01:34:14;;;;;;;0.00;0.00;;;;;;;13.32;100.00;98556.94;6171522;23;21915;-59
2022/10/22 01:36:42;;;;;;;0.00;0.00;;;;;;;13.29;100.00;98564.16;6174839;23;20199;-56
2022/10/22 01:39:09;;;;;;;0.00;0.00;;;;;;;13.26;100.00;98571.56;6171856;23;20261;-57
2022/10/22 01:41:35;;;;;;;0.00;0.00;;;;;;;13.33;100.00;98590.88;6176311;23;20251;-57
2022/10/22 01:44:02;;;;;;;0.00;0.00;;;;;;;13.36;100.00;98610.69;6146714;23;20260;-58
2022/10/22 01:46:30;;;;;;;0.00;0.00;;;;;;;13.37;100.00;98610.53;6176702;23;20196;-59
2022/10/22 01:49:14;;;;;;;0.00;0.00;;;;;;;13.37;100.00;98607.91;6172905;23;20265;-58
2022/10/22 01:51:53;;;;;;;0.00;0.00;;;;;;;13.37;100.00;98607.06;6176429;23;20200;-57
2022/10/22 01:54:30;;;;;;;0.00;0.00;;;;;;;13.37;100.00;98591.34;6173840;23;20198;-58
2022/10/22 01:57:08;;;;;;;0.00;0.00;;;;;;;13.33;100.00;98588.25;6172859;23;20245;-58
2022/10/22 01:59:48;;;;;;;0.00;0.00;;;;;;;13.27;100.00;98554.84;6176865;23;20210;-58
2022/10/22 02:02:29;;;;;;;0.00;0.00;;;;;;;13.28;100.00;98517.97;6172472;23;20261;-58
2022/10/22 02:05:00;;;;;;;0.00;0.00;;;;;;;13.21;100.00;98475.13;6172433;23;20600;-57
2022/10/22 02:07:32;;;;;;;0.00;0.00;;;;;;;13.17;100.00;98465.97;6176650;23;20650;-57
2022/10/22 02:10:01;;;;;;;0.00;0.00;;;;;;;13.10;100.00;98459.75;6146585;23;20261;-58
2022/10/22 02:12:30;;;;;;;0.00;0.00;;;;;;;13.07;100.00;98460.91;6176126;23;20233;-57
2022/10/22 02:14:59;;;;;;;0.00;0.00;;;;;;;13.04;100.00;98448.16;6172551;23;20265;-58
2022/10/22 02:17:31;;;;;;;0.00;0.00;;;;;;;13.04;100.00;98439.50;6150163;23;20261;-56
2022/10/22 02:20:01;;;;;;;0.00;0.00;;;;;;;13.09;100.00;98424.88;6172707;23;20213;-58
2022/10/22 02:22:28;;;;;;;0.00;0.00;;;;;;;13.09;100.00;98419.63;6176246;23;20253;-58
2022/10/22 02:24:55;;;;;;;0.00;0.00;;;;;;;13.13;100.00;98386.84;6173105;23;20200;-59
2022/10/22 02:27:27;;;;;;;0.00;0.00;;;;;;;13.08;100.00;98370.84;6176426;23;20262;-59
2022/10/22 02:30:00;;;;;;;0.00;0.00;;;;;;;13.09;100.00;98363.81;6172994;23;20195;-59
2022/10/22 02:32:32;;;;;;;0.00;0.00;;;;;;;13.06;100.00;98385.09;6176443;23;20286;-58
2022/10/22 02:35:01;;;;;;;0.00;0.00;;;;;;;13.05;100.00;98386.91;6172759;23;20205;-59
2022/10/22 02:37:28;;;;;;;0.00;0.00;;;;;;;13.11;100.00;98377.53;6176372;23;20672;-59
2022/10/22 02:39:56;;;;;;;0.00;0.00;;;;;;;13.10;100.00;98384.56;6146517;23;20313;-58
2022/10/22 02:42:24;;;;;;;0.00;0.00;;;;;;;13.07;100.00;98387.53;6176103;23;20230;-59
2022/10/22 02:44:51;;;;;;;0.00;0.00;;;;;;;13.07;100.00;98394.59;6173015;23;20268;-59
2022/10/22 02:47:18;;;;;;;0.00;0.00;;;;;;;12.99;100.00;98403.31;6176222;23;20267;-59
2022/10/22 02:49:45;;;;;;;0.00;0.00;;;;;;;12.90;100.00;98394.69;6176294;23;20251;-59
2022/10/22 02:52:12;;;;;;;0.00;0.00;;;;;;;12.91;100.00;98412.03;6172431;23;20243;-58
2022/10/22 02:54:39;;;;;;;0.00;0.00;;;;;;;12.92;100.00;98425.94;6176445;23;20199;-57
2022/10/22 02:57:05;;;;;;;0.00;0.00;;;;;;;12.89;100.00;98419.25;6172441;23;20200;-58
2022/10/22 02:59:32;;;;;;;0.00;0.00;;;;;;;12.85;100.00;98429.22;6176404;23;20264;-60
2022/10/22 03:01:58;;;;;;;0.00;0.00;;;;;;;12.80;100.00;98444.63;6172109;23;20210;-58
2022/10/22 03:04:25;;;;;;;0.00;0.00;;;;;;;12.71;100.00;98450.91;6176442;23;20210;-59
2022/10/22 03:06:53;;;;;;;0.00;0.00;;;;;;;12.65;100.00;98439.31;6172330;23;20257;-59
2022/10/22 03:09:19;;;;;;;0.00;0.00;;;;;;;12.65;100.00;98441.13;6176277;23;20206;-59
2022/10/22 03:11:46;;;;;;;0.00;0.00;;;;;;;12.57;100.00;98441.94;6176116;23;20210;-57
2022/10/22 03:14:12;;;;;;;0.00;0.00;;;;;;;12.51;100.00;98447.84;6171542;23;20214;-59
2022/10/22 03:16:39;;;;;;;0.00;0.00;;;;;;;12.49;100.00;98450.66;6175377;23;20210;-60
2022/10/22 03:19:05;;;;;;;0.00;0.00;;;;;;;12.40;100.00;98452.44;6172722;23;20206;-58
2022/10/22 03:21:37;;;;;;;0.00;0.00;;;;;;;12.38;100.00;98461.47;6176014;23;20271;-59
2022/10/22 03:24:09;;;;;;;0.00;0.00;;;;;;;12.34;100.00;98457.56;6172998;23;20201;-59
2022/10/22 03:26:38;;;;;;;0.00;0.00;;;;;;;12.32;100.00;98454.28;6176108;23;20204;-58
2022/10/22 03:29:04;;;;;;;0.00;0.00;;;;;;;12.33;100.00;98463.78;6172680;23;20260;-58
2022/10/22 03:31:31;;;;;;;0.00;0.00;;;;;;;12.28;100.00;98479.94;6170803;23;20217;-59
2022/10/22 03:33:58;;;;;;;0.00;0.00;;;;;;;12.29;100.00;98471.13;6202003;23;20207;-59
2022/10/22 03:36:25;;;;;;;0.00;0.00;;;;;;;12.25;100.00;98488.97;6205751;23;20211;-60
2022/10/22 03:38:52;;;;;;;0.00;0.00;;;;;;;12.27;100.00;98486.16;6202431;23;20217;-57
2022/10/22 03:41:20;;;;;;;0.00;0.00;;;;;;;12.25;100.00;98496.81;6196875;23;20282;-57
2022/10/22 03:43:50;;;;;;;0.00;0.00;;;;;;;12.27;100.00;98490.59;6177718;23;20225;-59
2022/10/22 03:46:16;;;;;;;0.00;0.00;;;;;;;12.25;100.00;98488.97;6202790;23;20205;-62
2022/10/22 03:48:43;;;;;;;0.00;0.00;;;;;;;12.25;100.00;98480.28;6205993;23;20272;-60
2022/10/22 03:51:10;;;;;;;0.00;0.00;;;;;;;12.25;100.00;98486.34;6194902;23;22363;-60
2022/10/22 03:53:37;;;;;;;0.00;0.00;;;;;;;12.25;100.00;98488.13;6175987;23;20210;-59
2022/10/22 03:56:08;;;;;;;0.00;0.00;;;;;;;12.25;100.00;98496.81;6172257;23;20269;-60
2022/10/22 03:58:36;;;;;;;0.00;0.00;;;;;;;12.30;100.00;98493.69;6175840;23;20254;-59
2022/10/22 04:01:05;;;;;;;0.00;0.00;;;;;;;12.33;100.00;98489.94;6171971;23;20201;-58
2022/10/22 04:03:31;;;;;;;0.00;0.00;;;;;;;12.29;100.00;98486.81;6175671;23;20261;-59
2022/10/22 04:06:01;;;;;;;0.00;0.00;;;;;;;12.26;100.00;98484.53;6172696;23;20209;-60
2022/10/22 04:08:28;;;;;;;0.00;0.00;;;;;;;12.27;100.00;98487.97;6175874;23;20258;-58
2022/10/22 04:10:54;;;;;;;0.00;0.00;;;;;;;12.21;100.00;98489.44;6171970;23;20225;-60
2022/10/22 04:13:21;;;;;;;0.00;0.00;;;;;;;12.18;100.00;98485.38;6175882;23;20202;-60
2022/10/22 04:15:50;;;;;;;0.00;0.00;;;;;;;12.13;100.00;98486.84;6175907;23;20207;-60
2022/10/22 04:18:17;;;;;;;0.00;0.00;;;;;;;12.07;100.00;98491.75;6172767;23;20209;-59
2022/10/22 04:20:44;;;;;;;0.00;0.00;;;;;;;12.06;100.00;98482.28;6175509;23;20214;-60
2022/10/22 04:23:10;;;;;;;0.00;0.00;;;;;;;12.01;100.00;98476.72;6171846;23;20268;-59
2022/10/22 04:25:37;;;;;;;0.00;0.00;;;;;;;12.09;100.00;98496.81;6175484;23;20213;-60
2022/10/22 04:28:06;;;;;;;0.00;0.00;;;;;;;12.12;100.00;98490.47;6172108;23;20209;-58
2022/10/22 04:30:33;;;;;;;0.00;0.00;;;;;;;12.16;100.00;98492.56;6175392;23;20202;-60
2022/10/22 04:33:01;;;;;;;0.00;0.00;;;;;;;12.12;100.00;98493.88;6170988;23;20206;-59
2022/10/22 04:35:27;;;;;;;0.00;0.00;;;;;;;12.07;100.00;98476.06;6175462;23;20205;-59
2022/10/22 04:37:54;;;;;;;0.00;0.00;;;;;;;12.07;100.00;98493.53;6172005;23;20285;-60
2022/10/22 04:40:21;;;;;;;0.00;0.00;;;;;;;12.09;100.00;98499.44;6175538;23;20665;-58
2022/10/22 04:42:48;;;;;;;0.00;0.00;;;;;;;12.14;100.00;98505.00;6149268;23;20217;-60
2022/10/22 04:45:15;;;;;;;0.00;0.00;;;;;;;12.07;100.00;98498.78;6171577;23;20211;-60
2022/10/22 04:47:41;;;;;;;0.00;0.00;;;;;;;12.09;100.00;98504.66;6175730;23;20285;-60
2022/10/22 04:50:09;;;;;;;0.00;0.00;;;;;;;12.08;100.00;98501.25;6172168;23;20565;-58
2022/10/22 04:52:36;;;;;;;0.00;0.00;;;;;;;12.00;100.00;98497.78;6174739;23;20218;-59
2022/10/22 04:55:02;;;;;;;0.00;0.00;;;;;;;11.94;100.00;98502.66;6172207;23;20203;-60
2022/10/22 04:57:29;;;;;;;0.00;0.00;;;;;;;11.94;100.00;98507.91;6175354;23;20594;-60
2022/10/22 04:59:56;;;;;;;0.00;0.00;;;;;;;11.91;100.00;98503.00;6171703;23;20707;-60
2022/10/22 05:02:23;;;;;;;0.00;0.00;;;;;;;11.89;100.00;98510.19;6174668;23;20219;-60
2022/10/22 05:04:49;;;;;;;0.00;0.00;;;;;;;11.90;100.00;98514.44;6175470;23;20206;-60
2022/10/22 05:07:17;;;;;;;0.00;0.00;;;;;;;11.91;100.00;98510.03;6172417;23;20206;-61
2022/10/22 05:09:44;;;;;;;0.00;0.00;;;;;;;11.89;100.00;98522.44;6175641;23;20209;-60
2022/10/22 05:12:11;;;;;;;0.00;0.00;;;;;;;11.94;100.00;98526.22;6145471;23;20211;-59
2022/10/22 05:14:37;;;;;;;0.00;0.00;;;;;;;11.97;100.00;98525.09;6176309;23;20202;-61
2022/10/22 05:17:04;;;;;;;0.00;0.00;;;;;;;12.05;100.00;98539.97;6173741;23;20225;-59
2022/10/22 05:19:31;;;;;;;0.00;0.00;;;;;;;12.06;100.00;98529.38;6177198;23;20557;-60
2022/10/22 05:22:00;;;;;;;0.00;0.00;;;;;;;12.14;100.00;98532.97;6172845;23;20269;-60
2022/10/22 05:24:30;;;;;;;0.00;0.00;;;;;;;12.17;100.00;98532.66;6177135;23;20751;-58
2022/10/22 05:26:59;;;;;;;0.00;0.00;;;;;;;12.12;100.00;98538.34;6173561;23;20210;-57
2022/10/22 05:29:26;;;;;;;0.00;0.00;;;;;;;12.13;100.00;98540.00;6177081;23;20687;-57
2022/10/22 05:31:53;;;;;;;0.00;0.00;;;;;;;12.08;100.00;98547.50;6173442;23;20229;-57
2022/10/22 05:34:20;;;;;;;0.00;0.00;;;;;;;12.02;100.00;98549.00;6176364;23;20204;-58
2022/10/22 05:36:46;;;;;;;0.00;0.00;;;;;;;11.97;100.00;98561.69;6176675;23;20264;-57
2022/10/22 05:39:13;;;;;;;0.00;0.00;;;;;;;11.94;100.00;98567.25;6173339;23;20652;-57
2022/10/22 05:41:41;;;;;;;0.00;0.00;;;;;;;11.94;100.00;98565.44;6176466;23;20269;-57
2022/10/22 05:44:07;;;;;;;0.00;0.00;;;;;;;11.92;100.00;98577.88;6171157;23;20205;-58
2022/10/22 05:46:36;;;;;;;0.00;0.00;;;;;;;11.93;100.00;98573.47;6176690;23;20206;-58
2022/10/22 05:49:05;;;;;;;0.00;0.00;;;;;;;11.94;100.00;98580.34;6172777;23;20234;-57
2022/10/22 05:51:34;;;;;;;0.00;0.00;;;;;;;11.98;100.00;98583.44;6176457;23;20210;-58
2022/10/22 05:54:02;;;;;;;0.00;0.00;;;;;;;12.00;100.00;98578.88;6146722;23;20206;-57
2022/10/22 05:56:31;;;;;;;0.00;0.00;;;;;;;11.99;100.00;98582.44;6176540;23;20261;-58
2022/10/22 05:58:59;;;;;;;0.00;0.00;;;;;;;11.92;100.00;98585.72;6172149;23;20723;-59
2022/10/22 06:01:29;;;;;;;0.00;0.00;;;;;;;11.93;100.00;98587.34;6176230;23;20206;-60
2022/10/22 06:03:57;;;;;;;0.00;0.00;;;;;;;11.92;100.00;98585.72;6173195;23;20264;-58
2022/10/22 06:06:31;;;;;;;0.00;0.00;;;;;;;11.77;100.00;98584.69;6176615;23;20210;-60
2022/10/22 06:09:02;;;;;;;0.00;0.00;;;;;;;11.70;100.00;98591.53;6172961;23;20212;-61
2022/10/22 06:11:29;;;;;;;0.00;0.00;;;;;;;11.63;100.00;98591.38;6176212;23;20217;-58
2022/10/22 06:13:55;;;;;;;0.00;0.00;;;;;;;11.65;100.00;98592.03;6172868;23;20264;-58
2022/10/22 06:16:23;;;;;;;0.00;0.00;;;;;;;11.56;100.00;98601.66;6176787;23;20261;-60
2022/10/22 06:18:50;;;;;;;0.00;0.00;;;;;;;11.54;100.00;98608.00;6176354;23;20251;-57
2022/10/22 06:21:16;;;;;;;0.00;0.00;;;;;;;11.45;100.00;98607.16;6172956;23;20284;-58
2022/10/22 06:23:44;;;;;;;0.00;0.00;;;;;;;11.43;100.00;98606.50;6176535;23;20210;-58
2022/10/22 06:26:11;;;;;;;0.00;0.00;;;;;;;11.43;100.00;98609.09;6172983;23;20359;-58
2022/10/22 06:28:38;;;;;;;0.00;0.00;;;;;;;11.43;100.00;98611.72;6176597;23;20280;-58
2022/10/22 06:31:05;;;;;;;0.00;0.00;;;;;;;11.41;100.00;98613.66;6172554;23;20575;-58
2022/10/22 06:33:36;;;;;;;0.00;0.00;;;;;;;11.38;100.00;98614.78;6176362;23;20657;-58
2022/10/22 06:36:06;;;;;;;0.00;0.00;;;;;;;11.41;100.00;98618.91;6172934;23;20206;-58
2022/10/22 06:38:32;;;;;;;0.00;0.00;;;;;;;11.37;100.00;98619.22;6176594;23;20212;-59
2022/10/22 06:41:02;;;;;;;0.00;0.00;;;;;;;11.32;100.00;98616.25;6172664;23;20269;-58
2022/10/22 06:43:29;;;;;;;0.00;0.00;;;;;;;11.35;100.00;98618.53;6176722;23;20207;-59
2022/10/22 06:45:59;;;;;;;0.00;0.00;;;;;;;11.36;100.00;98624.56;6172748;23;20206;-59
2022/10/22 06:48:25;;;;;;;0.00;0.00;;;;;;;11.40;100.00;98632.94;6176759;23;20261;-57
2022/10/22 06:50:53;;;;;;;0.00;0.00;;;;;;;11.44;100.00;98629.84;6172463;23;20216;-58
2022/10/22 06:53:20;;;;;;;0.00;0.00;;;;;;;11.50;100.00;98634.44;6176207;23;20210;-58
2022/10/22 06:55:46;;;;;;;0.00;0.00;;;;;;;11.64;100.00;98635.66;6176473;23;20265;-58
2022/10/22 06:58:13;;;;;;;0.00;0.00;;;;;;;11.93;100.00;98649.31;6173034;23;20210;-58
2022/10/22 07:00:40;;;;;;;0.00;0.00;;;;;;;12.14;100.00;98648.09;6176132;23;20261;-58
2022/10/22 07:03:06;;;;;;;0.00;0.00;;;;;;;12.34;100.00;98661.72;6171982;23;20210;-58
2022/10/22 07:05:33;;;;;;;0.00;0.00;;;;;;;12.50;100.00;98656.50;6176112;23;20262;-58
2022/10/22 07:08:01;;;;;;;0.00;0.00;;;;;;;12.65;100.00;98664.50;6172674;23;20659;-57
2022/10/22 07:10:28;;;;;;;0.00;0.00;;;;;;;12.83;100.00;98661.72;6176282;23;20229;-58
2022/10/22 07:12:54;;;;;;;0.00;0.00;;;;;;;13.03;100.00;98658.75;6172312;23;20206;-58
2022/10/22 07:15:21;;;;;;;0.00;0.00;;;;;;;13.13;100.00;98666.47;6176326;23;20208;-58
2022/10/22 07:17:47;;;;;;;0.00;0.00;;;;;;;13.26;100.00;98660.69;6149503;23;20260;-58
2022/10/22 07:20:15;;;;;;;0.00;0.00;;;;;;;13.38;100.00;98663.75;6173018;23;20269;-59
2022/10/22 07:22:42;;;;;;;0.00;0.00;;;;;;;13.48;100.00;98663.63;6149531;23;20203;-57
2022/10/22 07:25:10;;;;;;;0.00;0.00;;;;;;;13.60;100.00;98678.00;6172673;23;20210;-58
2022/10/22 07:27:37;;;;;;;0.00;0.00;;;;;;;13.72;100.00;98673.19;6175915;23;20206;-57
2022/10/22 07:30:04;;;;;;;0.00;0.00;;;;;;;13.82;100.00;98680.84;6172940;23;20720;-58
2022/10/22 07:32:30;;;;;;;0.00;0.00;;;;;;;13.93;100.00;98685.72;6175742;23;20217;-58
2022/10/22 07:34:57;;;;;;;0.00;0.00;;;;;;;14.10;100.00;98683.84;6172279;23;20208;-57
2022/10/22 07:37:23;;;;;;;0.00;0.00;;;;;;;14.16;100.00;98685.81;6175286;23;20225;-58
2022/10/22 07:39:50;;;;;;;0.00;0.00;;;;;;;14.21;100.00;98680.03;6176260;23;20200;-59
2022/10/22 07:42:18;;;;;;;0.00;0.00;;;;;;;14.30;100.00;98691.31;6172048;23;20214;-59
2022/10/22 07:44:45;;;;;;;0.00;0.00;;;;;;;14.33;100.00;98698.81;6175254;23;20202;-59
2022/10/22 07:47:11;;;;;;;0.00;0.00;;;;;;;14.45;99.77;98694.00;6172431;23;20221;-58
2022/10/22 07:49:38;;;;;;;0.00;0.00;;;;;;;14.51;99.90;98697.72;6175692;23;20256;-58
2022/10/22 07:52:06;;;;;;;0.00;0.00;;;;;;;14.51;100.00;98701.19;6171921;23;20265;-58
2022/10/22 07:54:32;;;;;;;0.00;0.00;;;;;;;14.58;100.00;98703.91;6175929;23;20206;-59
2022/10/22 07:56:59;;;;;;;0.00;0.00;;;;;;;14.60;100.00;98691.41;6171909;23;20581;-58
2022/10/22 07:59:27;;;;;;;0.00;0.00;;;;;;;14.67;100.00;98704.69;6175309;23;20263;-59
2022/10/22 08:01:53;;;;;;;0.00;0.00;;;;;;;14.73;100.00;98706.63;6170442;23;20211;-58
2022/10/22 08:04:20;;;;;;;0.00;0.00;;;;;;;14.74;100.00;98714.34;6173724;23;20219;-59
2022/10/22 08:06:46;;;;;;;0.00;0.00;;;;;;;14.85;98.60;98712.28;6175194;23;20206;-58
2022/10/22 08:09:13;;;;;;;0.00;0.00;;;;;;;14.91;97.67;98709.75;6170644;23;20259;-60
2022/10/22 08:11:39;;;;;;;0.00;0.00;;;;;;;15.00;95.07;98710.53;6174700;23;20242;-59
2022/10/22 08:14:06;;;;;;;0.00;0.00;;;;;;;14.99;95.11;98708.88;6172162;23;20211;-60
2022/10/22 08:16:34;;;;;;;0.00;0.00;;;;;;;14.90;96.76;98710.75;6149273;23;20281;-59
2022/10/22 08:19:00;;;;;;;0.00;0.00;;;;;;;14.93;96.76;98712.22;6171856;23;20219;-58
2022/10/22 08:21:27;;;;;;;0.00;0.00;;;;;;;14.86;96.31;98717.34;6174603;23;20206;-60
2022/10/22 08:23:54;;;;;;;0.00;0.00;;;;;;;14.90;95.11;98725.72;6170534;23;20210;-60
2022/10/22 08:26:20;;;;;;;0.00;0.00;;;;;;;14.96;94.14;98719.75;6174803;23;20311;-60
2022/10/22 08:28:47;;;;;;;0.00;0.00;;;;;;;14.96;96.34;98721.56;6174404;23;20202;-60
2022/10/22 08:31:13;;;;;;;0.00;0.00;;;;;;;15.01;95.59;98732.34;6171220;23;20266;-60
2022/10/22 08:33:42;;;;;;;0.00;0.00;;;;;;;15.00;94.46;98731.56;6174901;23;20204;-60
2022/10/22 08:36:09;;;;;;;0.80;0.33;;;;;;;14.97;96.04;98724.03;6171718;23;20211;-60
2022/10/22 08:38:36;;;;;;;5.30;0.93;;;;;;;14.98;96.67;98732.72;6148352;23;20212;-60
2022/10/22 08:41:09;;;;;;;4.10;0.87;;;;;;;14.98;96.45;98727.44;6170217;23;20206;-61
2022/10/22 08:44:02;;;;;;;3.27;0.80;;;;;;;15.09;93.11;98729.66;6174394;23;20256;-62
2022/10/22 08:46:52;;;;;;;1.90;0.60;;;;;;;15.09;93.87;98737.53;6159486;23;20610;-62
2022/10/22 08:49:23;;;;;;;1.60;0.70;;;;;;;15.15;93.09;98744.72;6173694;23;20207;-61
2022/10/22 08:51:50;;;;;;;2.43;0.67;;;;;;;15.12;93.08;98745.09;6176896;23;20574;-61
2022/10/22 08:54:25;;;;;;;2.90;0.80;;;;;;;15.15;92.97;98747.34;6174130;23;20660;-61
2022/10/22 08:57:04;;;;;;;3.43;0.70;;;;;;;15.17;94.83;98750.63;6174326;23;20213;-61
2022/10/22 08:59:41;;;;;;;4.27;1.07;;;;;;;15.26;93.25;98740.88;6176920;23;20227;-60
2022/10/22 09:02:22;;;;;;;1.60;0.90;;;;;;;15.31;93.37;98750.84;6171542;23;20211;-61
2022/10/22 09:05:00;;;;;;;5.13;1.07;;;;;;;15.31;92.26;98756.09;6177269;23;20241;-61
2022/10/22 09:07:27;;;;;;;3.53;1.20;;;;;;;15.35;92.74;98745.06;6174259;23;20740;-60
2022/10/22 09:09:57;;;;;;;3.30;0.90;;;;;;;15.48;94.60;98759.38;6173680;23;20203;-61
2022/10/22 09:12:26;;;;;;;3.57;0.70;;;;;;;15.58;92.50;98769.66;6176690;23;20716;-60
2022/10/22 09:14:54;;;;;;;4.60;1.93;;;;;;;15.71;90.46;98769.03;6173131;23;20274;-61
2022/10/22 09:17:32;;;;;;;3.70;1.63;;;;;;;15.84;90.90;98768.41;6176667;23;20205;-62
2022/10/22 09:20:09;;;;;;;1.70;0.80;;;;;;;15.92;91.19;98763.06;6173352;23;20275;-60
2022/10/22 09:22:43;;;;;;;5.90;0.90;;;;;;;16.03;90.95;98769.72;6176423;23;20265;-60
2022/10/22 09:25:20;;;;;;;6.20;0.83;;;;;;;16.03;93.56;98772.34;6172619;23;20555;-60
2022/10/22 09:27:47;;;;;;;2.00;0.83;;;;;;;16.08;89.79;98768.16;6149461;23;20199;-60
2022/10/22 09:30:16;;;;;;;4.47;0.63;;;;;;;16.18;89.38;98777.59;6173731;23;20262;-61
2022/10/22 09:32:43;;;;;;;2.50;0.70;;;;;;;16.22;88.88;98778.84;6176570;23;20709;-60
2022/10/22 09:35:13;;;;;;;1.67;0.50;;;;;;;16.23;89.84;98780.47;6173722;23;20582;-60
2022/10/22 09:37:48;;;;;;;3.23;0.60;;;;;;;16.34;85.28;98792.38;6176847;23;20204;-59
2022/10/22 09:40:16;;;;;;;1.90;1.00;;;;;;;16.41;86.58;98789.81;6173041;23;20228;-60
2022/10/22 09:42:44;;;;;;;2.27;0.90;;;;;;;16.36;86.01;98801.72;6176579;23;20212;-60
2022/10/22 09:45:17;;;;;;;2.60;0.80;;;;;;;16.49;83.88;98797.63;6147015;23;20291;-60
2022/10/22 09:47:44;;;;;;;3.73;0.80;;;;;;;16.57;82.54;98802.78;6176753;23;20252;-60
2022/10/22 09:50:21;;;;;;;2.53;0.80;;;;;;;16.52;85.42;98803.31;6173381;23;20220;-59
2022/10/22 09:52:57;;;;;;;2.37;0.57;;;;;;;16.70;83.20;98801.28;6176280;23;20200;-61
2022/10/22 09:55:25;;;;;;;2.70;1.00;;;;;;;16.76;83.55;98805.81;6173665;23;20250;-61
2022/10/22 09:57:53;;;;;;;3.83;0.60;;;;;;;16.73;85.59;98803.56;6173245;23;20248;-60
2022/10/22 10:00:23;;;;;;;2.80;0.70;;;;;;;16.72;82.95;98797.47;6175676;23;20490;-60
2022/10/22 10:02:55;;;;;;;4.10;0.70;;;;;;;16.85;83.83;98806.50;6176358;23;20231;-60
2022/10/22 10:05:29;;;;;;;1.07;0.80;;;;;;;16.80;85.10;98799.97;6174037;23;20213;-60
2022/10/22 10:07:57;;;;;;;2.77;0.70;;;;;;;16.81;84.37;98804.25;6173274;23;20201;-60
2022/10/22 10:10:32;;;;;;;4.50;0.73;;;;;;;16.93;84.41;98801.13;6176705;23;20211;-60
2022/10/22 10:13:09;;;;;;;3.93;0.87;;;;;;;17.00;80.05;98801.19;6173314;23;20208;-60
2022/10/22 10:15:43;;;;;;;1.37;0.60;;;;;;;17.00;83.54;98806.47;6175666;23;20204;-60
2022/10/22 10:18:23;;;;;;;1.43;0.60;;;;;;;17.12;82.53;98807.59;6172657;23;20308;-60
2022/10/22 10:20:58;;;;;;;2.33;0.90;;;;;;;17.09;82.77;98813.25;6175378;23;20671;-60
2022/10/22 10:23:32;;;;;;;4.33;0.90;;;;;;;17.23;81.97;98819.50;6173428;23;20267;-60
2022/10/22 10:26:03;;;;;;;2.73;1.00;;;;;;;17.25;79.68;98834.09;6173094;23;20260;-60
2022/10/22 10:28:50;;;;;;;2.70;0.80;;;;;;;17.09;80.62;98823.81;6176970;23;20259;-60
2022/10/22 10:31:25;;;;;;;2.87;0.93;;;;;;;17.18;81.31;98817.41;6173132;23;20208;-60
2022/10/22 10:34:00;;;;;;;4.23;1.40;;;;;;;17.21;82.62;98822.31;6172615;23;20213;-61
2022/10/22 10:36:38;;;;;;;5.23;0.77;;;;;;;17.33;79.59;98816.53;6175622;23;20209;-60
2022/10/22 10:39:10;;;;;;;1.70;0.87;;;;;;;17.35;82.83;98819.78;6172926;23;20204;-60
2022/10/22 10:41:51;;;;;;;4.03;0.60;;;;;;;17.39;78.08;98818.41;6176200;23;20214;-60
2022/10/22 10:44:46;;;;;;;2.47;0.67;;;;;;;17.37;81.27;98820.41;6172844;23;20214;-60
2022/10/22 10:47:28;;;;;;;4.27;1.00;;;;;;;17.32;77.60;98810.44;6172512;23;20212;-60
2022/10/22 10:50:02;;;;;;;1.50;0.70;;;;;;;17.40;79.26;98812.94;6171369;23;20568;-60
2022/10/22 10:52:40;;;;;;;1.77;1.10;;;;;;;17.53;75.97;98817.50;6174604;23;20237;-60
2022/10/22 10:55:17;;;;;;;2.63;1.17;;;;;;;17.65;77.17;98827.53;6171385;23;20217;-60
2022/10/22 10:57:50;;;;;;;2.80;0.80;;;;;;;17.64;77.77;98824.06;6174642;23;20208;-60
2022/10/22 11:00:19;;;;;;;2.60;0.77;;;;;;;17.65;76.02;98827.53;6172857;23;20275;-59
2022/10/22 11:03:24;;;;;;;3.07;0.80;;;;;;;17.78;73.19;98818.88;6175666;23;20695;-60
2022/10/22 11:05:54;;;;;;;6.57;0.70;;;;;;;17.72;74.38;98817.84;6169897;23;20217;-61
2022/10/22 11:08:24;;;;;;;3.00;1.00;;;;;;;17.84;73.48;98816.31;6176222;23;20210;-61
2022/10/22 11:10:54;;;;;;;3.33;1.10;;;;;;;17.93;74.02;98814.31;6171878;23;20657;-61
2022/10/22 11:13:29;;;;;;;5.80;1.10;;;;;;;17.92;74.89;98815.31;6175712;23;20257;-60
2022/10/22 11:16:02;;;;;;;4.80;0.80;;;;;;;17.82;71.07;98817.50;6172218;23;20271;-60
2022/10/22 11:18:35;;;;;;;4.73;0.90;;;;;;;17.83;69.86;98812.03;6176266;23;20214;-60
2022/10/22 11:21:12;;;;;;;3.87;0.63;;;;;;;17.81;71.25;98814.03;6171661;23;20274;-60
2022/10/22 11:23:47;;;;;;;1.83;0.70;;;;;;;17.90;74.31;98813.91;6175921;23;20201;-60
2022/10/22 11:26:27;;;;;;;4.07;0.73;;;;;;;17.91;73.60;98802.31;6172248;23;20264;-61
2022/10/22 11:28:54;;;;;;;4.10;0.83;;;;;;;17.97;73.14;98805.00;6145944;23;20214;-60
2022/10/22 11:31:25;;;;;;;5.17;0.80;;;;;;;17.90;73.62;98808.63;6175306;23;20211;-60
2022/10/22 11:33:57;;;;;;;3.87;0.70;;;;;;;17.98;72.64;98808.47;6172334;23;20266;-61
2022/10/22 11:36:28;;;;;;;4.63;1.00;;;;;;;17.98;71.30;98822.47;6175793;23;20518;-61
2022/10/22 11:38:56;;;;;;;3.57;1.10;;;;;;;18.17;70.74;98819.34;6171880;23;20212;-60